Share

Gillette, WY

Gillette-Campbell County (KGCC) Elev 4364 ft | 44.34 °N, 105.54 °W | Change Station

Current weather conditions updated 4 minutes ago

Clear
Clear
47 °F
Feels Like 47 °F
N
12
Wind Variable Wind from SSE
Sunrise 6:11 AM
Sunset 7:52 PM
Moon Waning Gibbous

Tomorrow is forecast to be Cooler than today.

Pressure 29.92 in
Visibility 10.0 miles
Clouds Clear
Dew Point 34 °F
Humidity 61%
Rainfall 0.00 in
Snow Depth Not available.
UV 0 out of 16
Pollen 9.30 out of 12
Air Quality Not available.
Flu Activity Sporadic
METAR KGCC 200453Z AUTO 16010KT 10SM CLR 08/01 A2996 RMK AO2 SLP132 T00830011 $

More Conditions Fewer Conditions

Pressure 29.92 in
Visibility 10.0 miles
Clouds Clear
Dew Point 34 °F
Humidity 61%
Rainfall 0.00 in
Snow Depth Not available.
UV 0 out of 16
Pollen 9.30 out of 12
Air Quality Not available.
Flu Activity Sporadic
METAR KGCC 200453Z AUTO 16010KT 10SM CLR 08/01 A2996 RMK AO2 SLP132 T00830011 $

More Conditions Fewer Conditions

10-Day Weather Forecast

Almanac

Astronomy

Apr. 19, 2014 Rise Set
Actual Time 6:11 AM MDT 7:52 PM MDT
Civil Twilight 5:41 AM MDT 8:23 PM MDT
Nautical Twilight 5:03 AM MDT 9:01 PM MDT
Astronomical Twilight 4:23 AM MDT 9:41 PM MDT
Moon No Moon Rise 9:27 AM MDT (4/19)
Length of Visible Light 14h 42m
Length of Day
13h 40m
Tomorrow will be 2m 54s longer.
Waning Gibbous, 73% of the Moon is Illuminated
Apr 20
Waning Gibbous
Apr 22
Last Quarter
Apr 29
New
May 6
First Quarter
May 14
Full

Yesterday's Extremes

State Highs State Lows

Community

  • Sunny day at the coast-Cape Arago Lighthouse
    Sunny day at the coast-Cape Arago Lighthouse
  • Cherry Blossoms
    Cherry Blossoms
  • White-Crowned Sparrow
    White-Crowned Sparrow
  • New Day
    New Day
  • Happy Easter!
    Happy Easter!

WunderPhotos

Upload Photos

1,703,081 photos uploaded!

WunderBlogs® & News

Nearby

Snow Depth

Station Depth Elevation
Casper Mountain 49 in 7850 ft
Reno Hill 56 in 8500 ft
Laprele Creek 24 in 8375 ft
Windy Peak 25 in 7900 ft
Townsend Creek 24 in 8700 ft

Coastal Water Temperatures

Place Temperature
No Stations Reporting

Earthquake Activity

City Distance Mag. Time & Date
No recent earthquake activity has been reported nearby.
Minimum magnitude displayed is 2.5.

Nearby Weather Stations

Station Location Temp. Windchill Dew Point Humidity Wind Precip. Elev Updated Type
RAWS ECHETA WY, Gillette, WY 52 °F - 26 °F 36% SSE  at  13 mph 0.00 in / hr 4396 ft 9:51 PM MDT MADIS
(North Gillette), Gillette, WY 49.6 °F 50 °F 35 °F 58% SE  at  0.0 mph 0.00 in / hr 4610 ft 10:57 PM MDT Rapid Fire

Show More Stations Show Fewer Stations

What do you think?

We're not finished. Please let us know what you like, what you don't like, and what you are still missing.